createdAt,value
2017-10-11T00:01:38.805Z,13.90
2017-10-11T00:04:06.340Z,13.90
2017-10-11T00:06:33.888Z,13.80
2017-10-11T00:09:01.465Z,13.80
2017-10-11T00:11:29.011Z,13.80
2017-10-11T00:13:56.578Z,13.80
2017-10-11T00:16:24.121Z,13.90
2017-10-11T00:18:51.737Z,13.80
2017-10-11T00:21:19.293Z,13.80
2017-10-11T00:23:46.849Z,13.80
2017-10-11T00:26:14.396Z,13.80
2017-10-11T00:28:41.987Z,13.80
2017-10-11T00:31:09.524Z,13.80
2017-10-11T00:33:37.085Z,13.80
2017-10-11T00:36:04.651Z,13.80
2017-10-11T00:38:32.208Z,13.80
2017-10-11T00:40:59.794Z,13.80
2017-10-11T00:43:27.334Z,13.70
2017-10-11T00:45:54.896Z,13.70
2017-10-11T00:48:22.444Z,13.80
2017-10-11T00:50:50.005Z,13.80
2017-10-11T00:53:17.591Z,13.80
2017-10-11T00:55:45.138Z,13.80
2017-10-11T00:58:12.693Z,13.80
2017-10-11T01:00:40.233Z,13.80
2017-10-11T01:03:07.804Z,13.80
2017-10-11T01:05:35.335Z,13.70
2017-10-11T01:08:03.689Z,13.70
2017-10-11T01:10:31.243Z,13.70
2017-10-11T01:12:58.771Z,13.70
2017-10-11T01:15:26.355Z,13.70
2017-10-11T01:17:53.896Z,13.70
2017-10-11T01:20:21.477Z,13.60
2017-10-11T01:22:49.021Z,13.70
2017-10-11T01:25:16.602Z,13.60
2017-10-11T01:27:44.149Z,13.60
2017-10-11T01:30:11.686Z,13.60
2017-10-11T01:32:39.246Z,13.60
2017-10-11T01:35:06.785Z,13.70
2017-10-11T01:37:35.109Z,13.70
2017-10-11T01:40:02.669Z,13.70
2017-10-11T01:42:30.270Z,13.70
2017-10-11T01:44:57.818Z,13.70
2017-10-11T01:47:25.353Z,13.70
2017-10-11T01:49:52.918Z,13.70
2017-10-11T01:52:20.445Z,13.70
2017-10-11T01:54:48.811Z,13.70
2017-10-11T01:57:17.124Z,13.80
2017-10-11T01:59:44.680Z,13.70
2017-10-11T02:02:12.213Z,13.70
2017-10-11T02:04:40.561Z,13.70
2017-10-11T02:07:08.131Z,13.70
2017-10-11T02:09:35.687Z,13.70
2017-10-11T02:12:03.221Z,13.70
2017-10-11T02:14:30.795Z,13.70
2017-10-11T02:16:58.329Z,13.60
2017-10-11T02:19:25.885Z,13.60
2017-10-11T02:21:53.425Z,13.60
2017-10-11T02:24:21.756Z,13.60
2017-10-11T02:26:49.285Z,13.60
2017-10-11T02:29:16.867Z,13.60
2017-10-11T02:31:44.421Z,13.60
2017-10-11T02:34:11.949Z,13.60
2017-10-11T02:36:40.297Z,13.60
2017-10-11T02:39:07.834Z,13.50
2017-10-11T02:41:35.362Z,13.60
2017-10-11T02:44:03.698Z,13.60
2017-10-11T02:46:31.247Z,13.60
2017-10-11T02:48:58.816Z,13.60
2017-10-11T02:51:26.352Z,13.60
2017-10-11T02:53:53.916Z,13.60
2017-10-11T02:56:21.447Z,13.60
2017-10-11T02:58:49.744Z,13.60
2017-10-11T03:01:17.431Z,13.60
2017-10-11T03:03:44.984Z,13.60
2017-10-11T03:06:12.556Z,13.70
2017-10-11T03:08:40.096Z,13.70
2017-10-11T03:11:08.427Z,13.60
2017-10-11T03:13:35.957Z,13.60
2017-10-11T03:16:03.501Z,13.60
2017-10-11T03:18:31.820Z,13.70
2017-10-11T03:20:59.383Z,13.60
2017-10-11T03:23:26.932Z,13.60
2017-10-11T03:25:54.515Z,13.60
2017-10-11T03:28:22.062Z,13.60
2017-10-11T03:30:50.528Z,13.60
2017-10-11T03:33:18.105Z,13.60
2017-10-11T03:35:45.688Z,13.60
2017-10-11T03:38:13.224Z,13.60
2017-10-11T03:40:40.806Z,13.60
2017-10-11T03:43:08.360Z,13.50
2017-10-11T03:45:35.938Z,13.60
2017-10-11T03:48:03.491Z,13.60
2017-10-11T03:50:31.023Z,13.60
2017-10-11T03:52:58.598Z,13.50
2017-10-11T03:55:26.168Z,13.50
2017-10-11T03:57:53.749Z,13.50
2017-10-11T04:00:21.307Z,13.50
2017-10-11T04:02:48.846Z,13.50
2017-10-11T04:05:16.392Z,13.50
2017-10-11T04:07:43.951Z,13.50
2017-10-11T04:10:11.532Z,13.50
2017-10-11T04:12:39.084Z,13.50
2017-10-11T04:15:06.637Z,13.50
2017-10-11T04:17:34.199Z,13.50
2017-10-11T04:20:01.764Z,13.50
2017-10-11T04:22:29.289Z,13.40
2017-10-11T04:24:56.840Z,13.40
2017-10-11T04:27:24.415Z,13.40
2017-10-11T04:29:53.524Z,13.40
2017-10-11T04:32:21.879Z,13.50
2017-10-11T04:34:49.435Z,13.40
2017-10-11T04:37:16.973Z,13.40
2017-10-11T04:39:44.526Z,13.40
2017-10-11T04:42:12.069Z,13.40
2017-10-11T04:44:39.635Z,13.50
2017-10-11T04:47:07.165Z,13.50
2017-10-11T04:49:34.716Z,13.40
2017-10-11T04:52:02.279Z,13.40
2017-10-11T04:54:29.817Z,13.40
2017-10-11T04:56:57.377Z,13.40
2017-10-11T04:59:24.933Z,13.40
2017-10-11T05:01:52.507Z,13.40
2017-10-11T05:04:20.036Z,13.40
2017-10-11T05:06:47.584Z,13.40
2017-10-11T05:09:15.137Z,13.40
2017-10-11T05:11:42.697Z,13.50
2017-10-11T05:14:11.012Z,13.50
2017-10-11T05:16:38.577Z,13.50
2017-10-11T05:19:06.106Z,13.50
2017-10-11T05:21:33.648Z,13.50
2017-10-11T05:24:01.972Z,13.50
2017-10-11T05:26:29.529Z,13.50
2017-10-11T05:28:57.116Z,13.50
2017-10-11T05:31:24.664Z,13.60
2017-10-11T05:33:52.219Z,13.60
2017-10-11T05:36:19.774Z,13.60
2017-10-11T05:38:47.333Z,13.60
2017-10-11T05:41:14.925Z,13.60
2017-10-11T05:43:43.235Z,13.50
2017-10-11T05:46:11.565Z,13.60
2017-10-11T05:48:39.139Z,13.50
2017-10-11T05:51:06.697Z,13.60
2017-10-11T05:53:34.237Z,13.60
2017-10-11T05:56:01.783Z,13.60
2017-10-11T05:58:29.341Z,13.60
2017-10-11T06:00:57.648Z,13.60
2017-10-11T06:03:25.193Z,13.60
2017-10-11T06:05:52.764Z,13.60
2017-10-11T06:08:20.324Z,13.70
2017-10-11T06:10:47.908Z,13.70
2017-10-11T06:13:15.461Z,13.70
2017-10-11T06:15:43.009Z,13.70
2017-10-11T06:18:10.563Z,13.70
2017-10-11T06:20:38.112Z,13.70
2017-10-11T06:23:06.448Z,13.70
2017-10-11T06:25:33.995Z,13.70
2017-10-11T06:28:01.544Z,13.80
2017-10-11T06:30:29.109Z,13.80
2017-10-11T06:32:56.655Z,13.80
2017-10-11T06:35:24.221Z,13.90
2017-10-11T06:37:51.771Z,13.90
2017-10-11T06:40:19.343Z,13.80
2017-10-11T06:42:46.891Z,13.90
2017-10-11T06:45:14.460Z,13.90
2017-10-11T06:47:42.008Z,13.90
2017-10-11T06:50:10.347Z,13.90
2017-10-11T06:52:37.877Z,14.00
2017-10-11T06:55:05.444Z,13.90
2017-10-11T06:57:32.994Z,14.00
2017-10-11T07:00:00.537Z,14.10
2017-10-11T07:02:28.849Z,14.10
2017-10-11T07:04:56.394Z,14.10
2017-10-11T07:07:23.970Z,14.10
2017-10-11T07:09:51.520Z,14.20
2017-10-11T07:12:19.099Z,14.20
2017-10-11T07:14:46.642Z,14.30
2017-10-11T07:17:14.185Z,14.30
2017-10-11T07:19:42.511Z,14.30
2017-10-11T07:22:10.106Z,14.30
2017-10-11T07:24:37.637Z,14.30
2017-10-11T07:27:05.180Z,14.30
2017-10-11T07:29:32.738Z,14.40
2017-10-11T07:32:00.265Z,14.40
2017-10-11T07:34:28.612Z,14.40
2017-10-11T07:36:56.146Z,14.30
2017-10-11T07:39:23.700Z,14.40
2017-10-11T07:41:51.273Z,14.40
2017-10-11T07:44:18.809Z,14.40
2017-10-11T07:46:46.369Z,14.50
2017-10-11T07:49:13.912Z,14.60
2017-10-11T07:51:42.218Z,14.70
2017-10-11T07:54:09.784Z,14.70
2017-10-11T07:56:37.336Z,14.70
2017-10-11T07:59:04.901Z,14.70
2017-10-11T08:01:32.453Z,14.60
2017-10-11T08:04:00.017Z,14.60
2017-10-11T08:06:27.567Z,14.60
2017-10-11T08:08:55.875Z,14.60
2017-10-11T08:11:23.463Z,14.50
2017-10-11T08:13:50.991Z,14.60
2017-10-11T08:16:18.566Z,14.50
2017-10-11T08:18:46.100Z,14.50
2017-10-11T08:21:14.424Z,14.50
2017-10-11T08:23:41.958Z,14.50
2017-10-11T08:26:09.489Z,14.60
2017-10-11T08:28:37.829Z,14.60
2017-10-11T08:31:05.374Z,14.60
2017-10-11T08:33:32.933Z,14.70
2017-10-11T08:36:00.461Z,14.80
2017-10-11T08:38:28.761Z,14.80
2017-10-11T08:40:56.341Z,14.80
2017-10-11T08:43:23.880Z,14.90
2017-10-11T08:45:51.461Z,14.90
2017-10-11T08:48:19.013Z,14.90
2017-10-11T08:50:46.557Z,14.90
2017-10-11T08:53:14.133Z,14.90
2017-10-11T08:55:41.684Z,14.90
2017-10-11T08:58:09.250Z,14.90
2017-10-11T09:00:36.790Z,14.90
2017-10-11T09:03:05.117Z,14.90
2017-10-11T09:05:32.648Z,14.90
2017-10-11T09:08:00.182Z,14.80
2017-10-11T09:10:27.777Z,14.80
2017-10-11T09:12:55.313Z,14.80
2017-10-11T09:15:23.656Z,14.70
2017-10-11T09:17:51.200Z,14.70
2017-10-11T09:20:19.097Z,14.70
2017-10-11T09:22:46.649Z,14.70
2017-10-11T09:25:14.234Z,14.60
2017-10-11T09:27:41.787Z,14.70
2017-10-11T09:30:09.353Z,14.70
2017-10-11T09:32:36.909Z,14.80
2017-10-11T09:35:04.458Z,14.80
2017-10-11T09:37:32.788Z,14.90
2017-10-11T09:40:00.347Z,15.00
2017-10-11T09:42:28.687Z,15.00
2017-10-11T09:44:56.233Z,15.00
2017-10-11T09:47:23.770Z,15.00
2017-10-11T09:49:51.331Z,15.00
2017-10-11T09:52:18.880Z,14.90
2017-10-11T09:54:46.477Z,14.80
2017-10-11T09:57:14.031Z,14.90
2017-10-11T09:59:41.573Z,14.90
2017-10-11T10:02:09.143Z,15.00
2017-10-11T10:04:36.703Z,15.00
2017-10-11T10:07:04.273Z,15.00
2017-10-11T10:09:31.824Z,15.10
2017-10-11T10:11:59.408Z,15.20
2017-10-11T10:14:26.959Z,15.30
2017-10-11T10:16:54.510Z,15.30
2017-10-11T10:19:22.078Z,15.40
2017-10-11T10:21:49.643Z,15.40
2017-10-11T10:24:17.197Z,15.40
2017-10-11T10:26:44.752Z,15.30
2017-10-11T10:29:12.301Z,15.30
2017-10-11T10:31:40.684Z,15.20
2017-10-11T10:34:09.006Z,15.20
2017-10-11T10:36:36.571Z,15.20
2017-10-11T10:39:04.147Z,15.10
2017-10-11T10:41:31.693Z,15.10
2017-10-11T10:43:59.270Z,15.10
2017-10-11T10:46:26.828Z,15.10
2017-10-11T10:48:54.401Z,15.10
2017-10-11T10:51:21.960Z,15.10
2017-10-11T10:53:49.536Z,15.00
2017-10-11T10:56:17.068Z,15.00
2017-10-11T10:58:44.619Z,15.00
2017-10-11T11:01:12.193Z,15.00
2017-10-11T11:03:39.754Z,14.90
2017-10-11T11:06:07.332Z,14.90
2017-10-11T11:08:34.878Z,14.80
2017-10-11T11:11:02.429Z,14.80
2017-10-11T11:13:29.965Z,14.80
2017-10-11T11:15:57.541Z,14.80
2017-10-11T11:18:25.089Z,14.80
2017-10-11T11:20:52.620Z,14.80
2017-10-11T11:23:20.948Z,14.80
2017-10-11T11:25:48.491Z,14.80
2017-10-11T11:28:16.037Z,14.70
2017-10-11T11:30:44.451Z,14.80
2017-10-11T11:33:12.010Z,14.80
2017-10-11T11:35:39.559Z,14.80
2017-10-11T11:38:07.124Z,14.80
2017-10-11T11:40:34.691Z,14.80
2017-10-11T11:43:02.226Z,14.80
2017-10-11T11:45:30.565Z,14.80
2017-10-11T11:47:58.110Z,14.80
2017-10-11T11:50:25.677Z,14.80
2017-10-11T11:52:53.226Z,14.80
2017-10-11T11:55:20.769Z,14.80
2017-10-11T11:57:48.356Z,14.80
2017-10-11T12:00:15.891Z,14.90
2017-10-11T12:02:43.463Z,14.90
2017-10-11T12:05:10.996Z,15.00
2017-10-11T12:07:39.322Z,15.10
2017-10-11T12:10:06.873Z,15.00
2017-10-11T12:12:34.504Z,15.10
2017-10-11T12:15:02.815Z,15.10
2017-10-11T12:17:30.402Z,15.10
2017-10-11T12:19:57.994Z,15.10
2017-10-11T12:22:26.323Z,15.00
2017-10-11T12:24:53.934Z,15.00
2017-10-11T12:27:22.253Z,14.90
2017-10-11T12:29:49.793Z,14.90
2017-10-11T12:32:18.127Z,15.10
2017-10-11T12:34:45.679Z,15.10
2017-10-11T12:37:13.259Z,15.30
2017-10-11T12:39:40.802Z,15.40
2017-10-11T12:42:08.379Z,15.50
2017-10-11T12:44:35.957Z,15.50
2017-10-11T12:47:03.504Z,15.50
2017-10-11T12:49:31.076Z,15.50
2017-10-11T12:51:58.629Z,15.50
2017-10-11T12:54:26.176Z,15.50
2017-10-11T12:56:53.710Z,15.50
2017-10-11T12:59:21.312Z,15.60
2017-10-11T13:01:48.850Z,15.60
2017-10-11T13:04:16.424Z,15.50
2017-10-11T13:06:43.991Z,15.50
2017-10-11T13:09:11.566Z,15.30
2017-10-11T13:11:39.105Z,15.20
2017-10-11T13:14:06.638Z,15.00
2017-10-11T13:16:34.224Z,14.90
2017-10-11T13:19:01.766Z,14.80
2017-10-11T13:21:29.321Z,14.80
2017-10-11T13:23:56.856Z,14.80
2017-10-11T13:26:25.175Z,14.70
2017-10-11T13:28:52.751Z,14.70
2017-10-11T13:31:20.294Z,14.70
2017-10-11T13:33:47.851Z,14.70
2017-10-11T13:36:15.395Z,14.70
2017-10-11T13:38:43.727Z,14.60
2017-10-11T13:41:11.258Z,14.60
2017-10-11T13:43:38.794Z,14.60
2017-10-11T13:46:07.126Z,14.60
2017-10-11T13:48:34.657Z,14.60
2017-10-11T13:51:02.254Z,14.60
2017-10-11T13:53:29.781Z,14.60
2017-10-11T13:55:57.358Z,14.70
2017-10-11T13:58:24.893Z,14.70
2017-10-11T14:00:52.465Z,14.80
2017-10-11T14:03:20.014Z,14.80
2017-10-11T14:05:47.592Z,14.80
2017-10-11T14:08:15.120Z,14.90
2017-10-11T14:10:43.465Z,14.90
2017-10-11T14:13:11.019Z,14.90
2017-10-11T14:15:38.576Z,14.90
2017-10-11T14:18:06.235Z,14.90
2017-10-11T14:20:33.799Z,14.90
2017-10-11T14:23:01.389Z,14.80
2017-10-11T14:25:28.930Z,14.80
2017-10-11T14:27:56.464Z,14.80
2017-10-11T14:30:24.031Z,14.70
2017-10-11T14:32:51.578Z,14.70
2017-10-11T14:35:19.152Z,14.60
2017-10-11T14:37:46.682Z,14.60
2017-10-11T14:40:15.013Z,14.70
2017-10-11T14:42:42.570Z,14.60
2017-10-11T14:45:10.104Z,14.70
2017-10-11T14:47:38.438Z,14.70
2017-10-11T14:50:05.969Z,14.70
2017-10-11T14:52:33.540Z,14.70
2017-10-11T14:55:01.089Z,14.80
2017-10-11T14:57:28.631Z,14.70
2017-10-11T14:59:56.198Z,14.70
2017-10-11T15:02:23.747Z,14.70
2017-10-11T15:04:52.073Z,14.70
2017-10-11T15:07:19.631Z,14.70
2017-10-11T15:09:47.198Z,14.60
2017-10-11T15:12:14.729Z,14.70
2017-10-11T15:14:42.295Z,14.60
2017-10-11T15:17:09.870Z,14.50
2017-10-11T15:19:37.428Z,14.50
2017-10-11T15:22:05.001Z,14.50
2017-10-11T15:24:32.557Z,14.50
2017-10-11T15:27:00.103Z,14.50
2017-10-11T15:29:27.676Z,14.50
2017-10-11T15:31:55.201Z,14.50
2017-10-11T15:34:23.539Z,14.40
2017-10-11T15:36:51.088Z,14.40
2017-10-11T15:39:18.627Z,14.40
2017-10-11T15:41:46.211Z,14.40
2017-10-11T15:44:13.759Z,14.40
2017-10-11T15:46:41.346Z,14.40
2017-10-11T15:49:08.889Z,14.40
2017-10-11T15:51:36.422Z,14.40
2017-10-11T15:54:03.999Z,14.40
2017-10-11T15:56:31.547Z,14.40
2017-10-11T15:58:59.169Z,14.30
2017-10-11T16:01:26.698Z,14.40
2017-10-11T16:03:54.232Z,14.40
2017-10-11T16:06:21.781Z,14.50
2017-10-11T16:08:50.086Z,14.50
2017-10-11T16:11:17.660Z,14.50
2017-10-11T16:13:45.186Z,14.50
2017-10-11T16:16:13.509Z,14.40
2017-10-11T16:18:41.073Z,14.40
2017-10-11T16:21:08.619Z,14.40
2017-10-11T16:23:36.190Z,14.30
2017-10-11T16:26:03.765Z,14.30
2017-10-11T16:28:31.314Z,14.30
2017-10-11T16:30:58.875Z,14.30
2017-10-11T16:33:26.414Z,14.30
2017-10-11T16:35:53.999Z,14.30
2017-10-11T16:38:21.546Z,14.30
2017-10-11T16:40:49.091Z,14.30
2017-10-11T16:43:17.425Z,14.30
2017-10-11T16:45:44.978Z,14.30
2017-10-11T16:48:12.539Z,14.30
2017-10-11T16:50:40.078Z,14.20
2017-10-11T16:53:07.615Z,14.20
2017-10-11T16:55:35.170Z,14.20
2017-10-11T16:58:03.464Z,14.10
2017-10-11T17:00:31.035Z,14.10
2017-10-11T17:02:58.561Z,14.20
2017-10-11T17:05:26.885Z,14.20
2017-10-11T17:07:54.437Z,14.20
2017-10-11T17:10:22.003Z,14.20
2017-10-11T17:12:49.674Z,14.20
2017-10-11T17:15:17.205Z,14.20
2017-10-11T17:17:45.500Z,14.20
2017-10-11T17:20:13.072Z,14.20
2017-10-11T17:22:40.603Z,14.20
2017-10-11T17:25:08.948Z,14.20
2017-10-11T17:27:36.504Z,14.20
2017-10-11T17:30:04.060Z,14.20
2017-10-11T17:32:31.636Z,14.20
2017-10-11T17:34:59.193Z,14.20
2017-10-11T17:37:26.768Z,14.20
2017-10-11T17:39:54.305Z,14.20
2017-10-11T17:42:21.846Z,14.10
2017-10-11T17:44:49.402Z,14.10
2017-10-11T17:47:17.000Z,14.10
2017-10-11T17:49:44.564Z,14.10
2017-10-11T17:52:12.119Z,14.20
2017-10-11T17:54:39.653Z,14.20
2017-10-11T17:57:07.219Z,14.20
2017-10-11T17:59:34.758Z,14.20
2017-10-11T18:02:02.331Z,14.20
2017-10-11T18:04:29.891Z,14.20
2017-10-11T18:06:57.430Z,14.20
2017-10-11T18:09:25.759Z,14.20
2017-10-11T18:11:53.289Z,14.20
2017-10-11T18:14:20.860Z,14.30
2017-10-11T18:16:48.416Z,14.30
2017-10-11T18:19:16.746Z,14.30
2017-10-11T18:21:44.291Z,14.30
2017-10-11T18:24:11.854Z,14.30
2017-10-11T18:26:39.435Z,14.30
2017-10-11T18:29:06.974Z,14.40
2017-10-11T18:31:34.555Z,14.50
2017-10-11T18:34:02.112Z,14.50
2017-10-11T18:36:29.679Z,14.50
2017-10-11T18:38:57.210Z,14.50
2017-10-11T18:41:24.769Z,14.50
2017-10-11T18:43:52.318Z,14.50
2017-10-11T18:46:19.873Z,14.50
2017-10-11T18:48:47.426Z,14.50
2017-10-11T18:51:14.956Z,14.60
2017-10-11T18:53:42.592Z,14.60
2017-10-11T18:56:10.144Z,14.60
2017-10-11T18:58:37.678Z,14.60
2017-10-11T19:01:05.247Z,14.70
2017-10-11T19:03:32.796Z,14.70
2017-10-11T19:06:00.360Z,14.70
2017-10-11T19:08:27.921Z,14.70
2017-10-11T19:10:55.462Z,14.70
2017-10-11T19:13:23.801Z,14.70
2017-10-11T19:15:51.348Z,14.70
2017-10-11T19:18:18.987Z,14.70
2017-10-11T19:20:46.525Z,14.70
2017-10-11T19:23:14.068Z,14.70
2017-10-11T19:25:41.616Z,14.80
2017-10-11T19:28:09.187Z,14.80
2017-10-11T19:30:36.741Z,14.80
2017-10-11T19:33:04.427Z,14.80
2017-10-11T19:35:31.974Z,14.60
2017-10-11T19:37:59.517Z,14.50
2017-10-11T19:40:27.095Z,14.40
2017-10-11T19:42:54.642Z,14.30
2017-10-11T19:45:22.210Z,14.30
2017-10-11T19:47:49.750Z,14.30
2017-10-11T19:50:17.307Z,14.30
2017-10-11T19:52:44.876Z,14.30
2017-10-11T19:55:12.418Z,14.20
2017-10-11T19:57:39.978Z,14.10
2017-10-11T20:00:19.398Z,14.10
2017-10-11T20:02:47.730Z,14.00
2017-10-11T20:05:15.273Z,14.00
2017-10-11T20:07:42.820Z,14.00
2017-10-11T20:10:10.400Z,13.90
2017-10-11T20:12:37.956Z,13.90
2017-10-11T20:15:05.517Z,13.80
2017-10-11T20:17:33.049Z,13.80
2017-10-11T20:20:01.359Z,13.80
2017-10-11T20:22:28.917Z,13.80
2017-10-11T20:24:56.471Z,13.90
2017-10-11T20:27:24.033Z,14.00
2017-10-11T20:29:51.570Z,14.00
2017-10-11T20:32:19.883Z,13.90
2017-10-11T20:34:47.442Z,13.90
2017-10-11T20:37:14.995Z,13.90
2017-10-11T20:39:42.553Z,13.90
2017-10-11T20:42:10.849Z,14.00
2017-10-11T20:44:38.405Z,14.00
2017-10-11T20:47:05.968Z,14.00
2017-10-11T20:49:33.503Z,14.00
2017-10-11T20:52:01.819Z,14.20
2017-10-11T20:54:29.345Z,14.20
2017-10-11T20:56:57.692Z,14.30
2017-10-11T20:59:25.223Z,14.30
2017-10-11T21:01:52.757Z,14.30
2017-10-11T21:04:21.082Z,14.40
2017-10-11T21:06:48.624Z,14.30
2017-10-11T21:09:16.207Z,14.40
2017-10-11T21:11:43.736Z,14.50
2017-10-11T21:14:11.288Z,14.50
2017-10-11T21:16:38.829Z,14.60
2017-10-11T21:19:07.133Z,14.60
2017-10-11T21:21:34.701Z,14.60
2017-10-11T21:24:02.247Z,14.70
2017-10-11T21:26:30.542Z,14.70
2017-10-11T21:28:58.121Z,14.60
2017-10-11T21:31:25.649Z,14.70
2017-10-11T21:33:53.218Z,14.60
2017-10-11T21:36:20.773Z,14.60
2017-10-11T21:38:48.338Z,14.60
2017-10-11T21:41:16.676Z,14.70
2017-10-11T21:43:44.212Z,14.60
2017-10-11T21:46:11.791Z,14.70
2017-10-11T21:48:39.340Z,14.70
2017-10-11T21:51:06.898Z,14.70
2017-10-11T21:53:34.476Z,14.60
2017-10-11T21:56:02.027Z,14.60
2017-10-11T21:58:29.603Z,14.70
2017-10-11T22:00:57.146Z,14.60
2017-10-11T22:03:24.678Z,14.60
2017-10-11T22:05:52.239Z,14.70
2017-10-11T22:08:19.791Z,14.60
2017-10-11T22:10:48.134Z,14.60
2017-10-11T22:13:15.684Z,14.60
2017-10-11T22:15:43.229Z,14.60
2017-10-11T22:18:10.788Z,14.60
2017-10-11T22:20:38.341Z,14.60
2017-10-11T22:23:05.913Z,14.60
2017-10-11T22:25:33.440Z,14.60
2017-10-11T22:28:01.734Z,14.60
2017-10-11T22:30:29.312Z,14.60
2017-10-11T22:32:56.852Z,14.70
2017-10-11T22:35:24.410Z,14.70
2017-10-11T22:37:51.968Z,14.70
2017-10-11T22:40:20.312Z,14.70
2017-10-11T22:42:47.852Z,14.70
2017-10-11T22:45:15.401Z,14.70
2017-10-11T22:47:42.955Z,14.70
2017-10-11T22:50:10.528Z,14.70
2017-10-11T22:52:39.391Z,14.70
2017-10-11T22:55:07.689Z,14.70
2017-10-11T22:57:35.224Z,14.70
2017-10-11T23:00:03.560Z,14.70
2017-10-11T23:02:31.885Z,14.70
2017-10-11T23:05:00.231Z,14.70
2017-10-11T23:07:27.763Z,14.70
2017-10-11T23:09:55.303Z,14.70
2017-10-11T23:12:22.853Z,14.80
2017-10-11T23:14:51.158Z,14.70
2017-10-11T23:17:18.737Z,14.70
2017-10-11T23:19:46.297Z,14.70
2017-10-11T23:22:13.842Z,14.70
2017-10-11T23:24:41.403Z,14.70
2017-10-11T23:27:08.933Z,14.70
2017-10-11T23:29:37.256Z,14.70
2017-10-11T23:32:04.790Z,14.70
2017-10-11T23:34:32.350Z,14.70
2017-10-11T23:36:59.925Z,14.70
2017-10-11T23:39:27.475Z,14.70
2017-10-11T23:41:55.062Z,14.80
2017-10-11T23:44:22.599Z,14.80
2017-10-11T23:46:50.140Z,14.80
2017-10-11T23:49:18.464Z,14.80
2017-10-11T23:51:46.000Z,14.80
2017-10-11T23:54:13.583Z,14.80
2017-10-11T23:56:41.122Z,14.90
2017-10-11T23:59:08.677Z,14.90
